Cisco, Texas
Current Conditions -  °F | °C
As of 4:55 AM on Thursday 23 Oct 2014 (Local Time) from KBKD Reporting Station
Overcast Overcast  
Wind Chill: 67°   Ceiling: 8000
Heat Index: 67°   Visibility: 7mi
Dew Point: 58°   Wind: 7mph
Humidity: 73%   Direction: 160°SSE
Pressure: 30.1"   Gusts: NA
Location:  32.39°N, 98.98°W
Report Text: KBKD 230955Z AUTO 16006KT 7SM BKN080 OVC090 20/15 A3010 RMK AO2 T01950145
Loading
Personal Weather Stations






























Interactive Weather Map
Tropical Storm Tracking
New forecast layout! Learn more

10-Day Weather Forecast

Advertisements
Track Severe Weather on mobile